This is the latest recevied weather packets stored in our database for station/object W4MSI. If no packets are shown the sender has not sent any weather packets the latest 10 day(s).
| Time | Temp. | Humidity | Pressure | Rain* | Wind** | Luminosity | Snow |
|---|---|---|---|---|---|---|---|
| 1777728675 | 12.78° C | 59% | 1017 hPa | 0 mm | - | 268 W/m² | - |
| 1777728372 | 12.78° C | 61% | 1017 hPa | 0 mm | - | 252 W/m² | - |
| 1777728069 | 12.22° C | 61% | 1016.9 hPa | 0 mm | - | 237 W/m² | - |
| 1777727766 | 12.78° C | 60% | 1016.9 hPa | 0 mm | - | 224 W/m² | - |
| 1777727463 | 12.22° C | 63% | 1016.9 hPa | 0 mm | - | 210 W/m² | - |
| 1777727161 | 12.22° C | 61% | 1016.9 hPa | 0 mm | - | 196 W/m² | - |
| 1777726858 | 11.67° C | 63% | 1016.9 hPa | 0 mm | - | 187 W/m² | - |
| 1777726554 | 10.56° C | 69% | 1017.1 hPa | 0 mm | - | 171 W/m² | - |
| 1777726252 | 10.56° C | 66% | 1016.9 hPa | 0 mm | - | 156 W/m² | - |
| 1777725948 | 10° C | 66% | 1016.9 hPa | 0 mm | - | 155 W/m² | - |
| 1777725645 | 10° C | 69% | 1016.8 hPa | 0 mm | - | 142 W/m² | - |
| 1777725344 | 10° C | 70% | 1016.9 hPa | 0 mm | - | 128 W/m² | - |
| 1777725040 | 10° C | 69% | 1016.9 hPa | 0 mm | - | 123 W/m² | - |
| 1777724737 | 8.89° C | 73% | 1016.9 hPa | 0 mm | - | 111 W/m² | - |
| 1777724434 | 8.33° C | 80% | 1016.7 hPa | 0 mm | - | 98 W/m² | - |
| 1777724131 | 8.33° C | 78% | 1016.6 hPa | 0 mm | - | 58 W/m² | - |
| 1777723829 | 8.89° C | 76% | 1016.6 hPa | 0 mm | - | 57 W/m² | - |
| 1777723525 | 8.89° C | 73% | 1016.5 hPa | 0 mm | - | 55 W/m² | - |
| 1777723222 | 8.89° C | 75% | 1016.5 hPa | 0 mm | - | 76 W/m² | - |
| 1777722920 | 8.89° C | 72% | 1016.5 hPa | 0 mm | - | 50 W/m² | - |
| 1777722615 | 8.89° C | 77% | 1016.6 hPa | 0 mm | - | 65 W/m² | - |
| 1777722312 | 8.33° C | 78% | 1016.5 hPa | 0 mm | - | 66 W/m² | - |
| 1777722009 | 7.22° C | 79% | 1016.4 hPa | 0 mm | - | 46 W/m² | - |
| 1777721706 | 6.67° C | 83% | 1016.4 hPa | 0 mm | - | 34 W/m² | - |
| 1777721405 | 6.11° C | 85% | 1016.4 hPa | 0 mm | - | 29 W/m² | - |
* Rain latest hour (hover to see other rain measurements)
** Current wind speed in m/s (hover to see current wind gust speed)